»·PEaware :: N285FB KAVX-KSJC

N285FB :: KAVX-KSJC

FLIGHT INFORMATION

Flight Status: Arrived
Operator: Privately registered:
United States
More flights under this callsign
Pilot: Matt G. (13672)
Aircraft: SOCATA TBM-900
(TBM9)
More flights by this aircraft type
Origin: KAVX Catalina
United States
Destination: KSJC Mineta San Jose Intl
United States
More flights between these airports :: More routes between these airports
Route: SXC V27 VTU V25 SNS GSTEE SILCN4
File this flight plan on PilotEdge
Remarks:
Altitude:
(Current/Filed)
26,000ft
Speed:
(Current/Filed)
230kts
Departed: 12-Jan-19 05:08 PM
Arrived: 12-Jan-19 06:25 PM
Distance/Time
Traveled:
293nm/1:17
Distance/Time
To Go:
Arrived

Flight Plot

Page will automatically refresh every two minutes.

Flight plan parsing failed; only flown route is shown


Map Options




Map Legend


Flown Route
Filed Route
Departure Airport
Arrival Airport
Navaid (VOR, NDB)
Fix

Horizontal Profiles

Position Reports

Time Latitude Longitude Heading Altitude Ground
Speed
12-Jan-19 16:45 33.403881 -118.414879 254 1552ft 0kts
12-Jan-19 16:46 33.403881 -118.414879 254 1552ft 0kts
12-Jan-19 16:47 33.403881 -118.414879 254 1552ft 0kts
12-Jan-19 16:48 33.403881 -118.414879 254 1552ft 0kts
12-Jan-19 16:49 33.403881 -118.414879 254 1552ft 0kts
12-Jan-19 16:50 33.403881 -118.414879 254 1552ft 0kts
12-Jan-19 16:51 33.403881 -118.414879 254 1552ft 0kts
12-Jan-19 16:53 33.403881 -118.414879 254 1552ft 0kts
12-Jan-19 16:54 33.403881 -118.414879 254 1552ft 0kts
12-Jan-19 16:55 33.403881 -118.414879 254 1552ft 0kts
12-Jan-19 16:56 33.403881 -118.414879 254 1552ft 0kts
12-Jan-19 16:57 33.403881 -118.414879 254 1552ft 0kts
12-Jan-19 16:58 33.403881 -118.414879 254 1552ft 0kts
12-Jan-19 16:59 33.403881 -118.414879 254 1552ft 0kts
12-Jan-19 17:00 33.403881 -118.414879 254 1552ft 0kts
12-Jan-19 17:01 33.403881 -118.414879 254 1552ft 0kts
12-Jan-19 17:02 33.403881 -118.414879 254 1552ft 0kts
12-Jan-19 17:03 33.403881 -118.414879 254 1552ft 0kts
12-Jan-19 17:04 33.403444 -118.416134 286 1552ft 8kts
12-Jan-19 17:05 33.405700 -118.413864 53 1552ft 14kts
12-Jan-19 17:06 33.406990 -118.411705 52 1552ft 0kts
12-Jan-19 17:07 33.407345 -118.411417 331 1552ft 8kts
12-Jan-19 17:08 33.396871 -118.428696 236 1875ft 121kts
12-Jan-19 17:09 33.385094 -118.472232 304 2615ft 167kts
12-Jan-19 17:10 33.432899 -118.493882 333 2504ft 191kts
12-Jan-19 17:11 33.480625 -118.524614 329 2501ft 196kts
12-Jan-19 17:12 33.528111 -118.557492 328 2499ft 197kts
12-Jan-19 17:13 33.573064 -118.588876 328 3843ft 179kts
12-Jan-19 17:13 33.596313 -118.605261 324 4878ft 178kts
12-Jan-19 17:14 33.637756 -118.640765 324 6640ft 183kts
12-Jan-19 17:15 33.680141 -118.677166 324 8402ft 187kts
12-Jan-19 17:17 33.733242 -118.722823 323 10043ft 206kts
12-Jan-19 17:18 33.780403 -118.763056 324 11585ft 210kts
12-Jan-19 17:18 33.820260 -118.797005 324 12685ft 211kts
12-Jan-19 17:20 33.876054 -118.844613 323 14224ft 212kts
12-Jan-19 17:21 33.924777 -118.886260 323 15557ft 212kts
12-Jan-19 17:21 33.964866 -118.920573 323 16536ft 212kts
12-Jan-19 17:22 34.013164 -118.961964 323 17605ft 211kts
12-Jan-19 17:23 34.061463 -119.003424 322 18542ft 211kts
12-Jan-19 17:24 34.109545 -119.044745 322 19377ft 210kts
12-Jan-19 17:25 34.144108 -119.102159 304 20094ft 210kts
12-Jan-19 17:26 34.176821 -119.161513 304 20747ft 211kts
12-Jan-19 17:27 34.209560 -119.221028 304 21321ft 211kts
12-Jan-19 17:28 34.242326 -119.280720 304 21918ft 215kts
12-Jan-19 17:29 34.275379 -119.340984 304 23173ft 212kts
12-Jan-19 17:30 34.308163 -119.400874 303 24169ft 214kts
12-Jan-19 17:31 34.341164 -119.461307 304 25096ft 216kts
12-Jan-19 17:32 34.374513 -119.522423 303 26093ft 221kts
12-Jan-19 17:33 34.410703 -119.588879 303 26092ft 246kts
12-Jan-19 17:34 34.449197 -119.659723 303 26095ft 254kts
12-Jan-19 17:35 34.488356 -119.731889 303 26094ft 255kts
12-Jan-19 17:36 34.538664 -119.791871 324 26095ft 259kts
12-Jan-19 17:37 34.600809 -119.837149 324 26090ft 259kts
12-Jan-19 17:38 34.662867 -119.882242 324 26084ft 259kts
12-Jan-19 17:39 34.725072 -119.927499 324 26087ft 260kts
12-Jan-19 17:40 34.787958 -119.973350 324 26081ft 263kts
12-Jan-19 17:41 34.851235 -120.019588 325 26077ft 263kts
12-Jan-19 17:42 34.914436 -120.065974 327 26079ft 263kts
12-Jan-19 17:43 34.974583 -120.110043 331 26076ft 266kts
12-Jan-19 17:44 35.040401 -120.158283 333 26076ft 277kts
12-Jan-19 17:45 35.108609 -120.208405 333 26085ft 286kts
12-Jan-19 17:46 35.177595 -120.259273 333 26086ft 290kts
12-Jan-19 17:47 35.247592 -120.310977 333 26085ft 291kts
12-Jan-19 17:48 35.317840 -120.362965 333 26084ft 292kts
12-Jan-19 17:49 35.388169 -120.415133 333 26082ft 292kts
12-Jan-19 17:50 35.458491 -120.467405 333 26073ft 292kts
12-Jan-19 17:51 35.528558 -120.519595 333 26065ft 292kts
12-Jan-19 17:52 35.598480 -120.571776 333 26064ft 292kts
12-Jan-19 17:53 35.668204 -120.623966 332 26063ft 292kts
12-Jan-19 17:54 35.732394 -120.685218 326 26061ft 294kts
12-Jan-19 17:55 35.796998 -120.747946 326 26060ft 294kts
12-Jan-19 17:56 35.861547 -120.810800 325 26060ft 294kts
12-Jan-19 17:57 35.925055 -120.875683 324 26060ft 295kts
12-Jan-19 17:58 35.988636 -120.941160 324 26060ft 294kts
12-Jan-19 17:59 36.053221 -121.004095 327 26060ft 293kts
12-Jan-19 18:00 36.118880 -121.066509 328 24657ft 306kts
12-Jan-19 18:01 36.187793 -121.132169 329 22652ft 313kts
12-Jan-19 18:02 36.258461 -121.199700 328 20042ft 307kts
12-Jan-19 18:03 36.324539 -121.262901 329 20032ft 294kts
12-Jan-19 18:04 36.389109 -121.324927 329 19974ft 291kts
12-Jan-19 18:05 36.453337 -121.386810 328 19423ft 299kts
12-Jan-19 18:06 36.524646 -121.441908 347 17429ft 299kts
12-Jan-19 18:07 36.603669 -121.474974 345 15432ft 298kts
12-Jan-19 18:08 36.682444 -121.508254 344 13441ft 298kts
12-Jan-19 18:09 36.761226 -121.541673 343 11350ft 295kts
12-Jan-19 18:10 36.836787 -121.573664 340 8834ft 281kts
12-Jan-19 18:11 36.910226 -121.605064 340 7988ft 271kts
12-Jan-19 18:12 36.983984 -121.636320 340 6883ft 285kts
12-Jan-19 18:13 37.054561 -121.666301 338 4375ft 249kts
12-Jan-19 18:14 37.107912 -121.689032 338 3765ft 168kts
12-Jan-19 18:15 37.146429 -121.705310 336 3872ft 178kts
12-Jan-19 18:16 37.190750 -121.740685 314 3767ft 170kts
12-Jan-19 18:17 37.220786 -121.773979 312 3480ft 125kts
12-Jan-19 18:18 37.244058 -121.799852 312 2908ft 107kts
12-Jan-19 18:19 37.266446 -121.824696 312 2392ft 108kts
12-Jan-19 18:20 37.288787 -121.849088 315 1789ft 107kts
12-Jan-19 18:21 37.309384 -121.871458 315 1277ft 103kts
12-Jan-19 18:22 37.329691 -121.893788 316 799ft 103kts
12-Jan-19 18:23 37.349418 -121.915355 315 275ft 98kts
12-Jan-19 18:24 37.365049 -121.932563 317 46ft 29kts
12-Jan-19 18:25 37.365519 -121.934779 142 46ft 17kts
12-Jan-19 18:26 37.361688 -121.931536 234 46ft 5kts
12-Jan-19 18:27 37.359381 -121.930514 140 46ft 10kts
12-Jan-19 18:28 37.359065 -121.930616 48 46ft 0kts

Navigation Log

Ident Type
Flight plan parsing failed, navigation log unavailable